createdAt,value
2023-03-28T00:00:11.860Z,2.8
2023-03-28T00:05:11.845Z,2.8
2023-03-28T00:10:11.903Z,2.7
2023-03-28T00:15:11.896Z,2.8
2023-03-28T00:20:48.740Z,2.7
2023-03-28T00:27:25.433Z,2.7
2023-03-28T00:30:12.181Z,2.8
2023-03-28T00:35:11.931Z,2.7
2023-03-28T00:40:11.959Z,2.8
2023-03-28T00:45:12.050Z,3.1
2023-03-28T00:50:11.892Z,2.8
2023-03-28T00:55:32.683Z,2.8
2023-03-28T01:00:11.874Z,2.7
2023-03-28T01:05:11.916Z,2.6
2023-03-28T01:10:11.897Z,2.6
2023-03-28T01:15:12.016Z,2.6
2023-03-28T01:20:11.938Z,2.6
2023-03-28T01:25:11.973Z,2.6
2023-03-28T01:30:12.124Z,3.1
2023-03-28T01:35:11.868Z,3.5
2023-03-28T01:40:12.180Z,4.2
2023-03-28T01:45:11.965Z,4.4
2023-03-28T01:50:12.106Z,5.1
2023-03-28T01:55:27.927Z,5.2
2023-03-28T02:00:12.123Z,5.2
2023-03-28T02:05:15.921Z,5.2
2023-03-28T02:10:11.863Z,5.2
2023-03-28T02:15:12.397Z,5.2
2023-03-28T02:20:11.937Z,5.2
2023-03-28T02:25:11.928Z,5.5
2023-03-28T02:30:11.934Z,5.5
2023-03-28T02:35:12.012Z,6
2023-03-28T02:40:11.922Z,6
2023-03-28T02:45:12.175Z,6.4
2023-03-28T02:50:12.004Z,6.5
2023-03-28T02:55:26.637Z,6.5
2023-03-28T03:00:11.974Z,6.5
2023-03-28T03:05:11.938Z,6.9
2023-03-28T03:10:11.985Z,6.5
2023-03-28T03:15:11.935Z,6.5
2023-03-28T03:20:11.991Z,7
2023-03-28T03:25:15.018Z,7
2023-03-28T03:30:12.244Z,7
2023-03-28T03:35:12.054Z,7.3
2023-03-28T03:40:11.918Z,7.1
2023-03-28T03:45:13.762Z,7.3
2023-03-28T03:50:11.961Z,7.3
2023-03-28T03:55:30.324Z,7.1
2023-03-28T04:00:12.055Z,7
2023-03-28T04:05:14.036Z,7.1
2023-03-28T04:10:11.947Z,7.1
2023-03-28T04:15:11.898Z,7
2023-03-28T04:20:12.490Z,6.9
2023-03-28T04:25:18.838Z,6.9
2023-03-28T04:30:14.581Z,7
2023-03-28T04:35:12.240Z,7
2023-03-28T04:40:12.172Z,7
2023-03-28T04:45:11.971Z,7
2023-03-28T04:50:12.060Z,7
2023-03-28T04:55:29.721Z,7
2023-03-28T05:00:12.022Z,6.8
2023-03-28T05:05:11.956Z,6.8
2023-03-28T05:10:14.939Z,6.6
2023-03-28T05:15:11.954Z,6.8
2023-03-28T05:20:12.105Z,6.7
2023-03-28T05:25:12.875Z,6.6
2023-03-28T05:30:12.015Z,6.7
2023-03-28T05:35:12.016Z,7
2023-03-28T05:40:12.016Z,7
2023-03-28T05:45:12.062Z,7
2023-03-28T05:50:12.121Z,6.9
2023-03-28T05:55:42.911Z,6.9
2023-03-28T06:00:12.075Z,6.9
2023-03-28T06:05:11.965Z,6.6
2023-03-28T06:10:11.997Z,6.1
2023-03-28T06:15:11.951Z,5.8
2023-03-28T06:20:16.799Z,5.8
2023-03-28T06:25:12.084Z,5.7
2023-03-28T06:30:12.029Z,5.7
2023-03-28T06:35:11.959Z,4.8
2023-03-28T06:40:11.966Z,4.8
2023-03-28T06:45:12.099Z,4.9
2023-03-28T06:50:11.936Z,4.8
2023-03-28T06:55:39.693Z,4.8
2023-03-28T07:00:12.083Z,4.6
2023-03-28T07:05:11.986Z,4.5
2023-03-28T07:10:12.086Z,4.4
2023-03-28T07:15:12.155Z,3.9
2023-03-28T07:20:11.996Z,3.9
2023-03-28T07:25:12.030Z,3.7
2023-03-28T07:30:12.129Z,3.8
2023-03-28T07:35:12.100Z,3.8
2023-03-28T07:40:11.958Z,3.6
2023-03-28T07:45:12.056Z,3.6
2023-03-28T07:50:12.022Z,3.6
2023-03-28T07:55:31.875Z,3.7
2023-03-28T08:00:12.255Z,3.7
2023-03-28T08:05:12.044Z,3.6
2023-03-28T08:10:12.063Z,3.5
2023-03-28T08:15:12.128Z,3.5
2023-03-28T08:20:12.047Z,3.2
2023-03-28T08:25:12.309Z,3.1
2023-03-28T08:30:12.126Z,2.6
2023-03-28T08:35:11.995Z,2.6
2023-03-28T08:40:12.047Z,2.5
2023-03-28T08:45:12.148Z,2.5
2023-03-28T08:50:15.067Z,2.5
2023-03-28T08:55:28.521Z,2.5
2023-03-28T09:00:12.121Z,2.2
2023-03-28T09:05:23.472Z,2.2
2023-03-28T09:10:12.053Z,2.1
2023-03-28T09:15:12.128Z,2.1
2023-03-28T09:20:12.020Z,2.1
2023-03-28T09:25:12.115Z,1.9
2023-03-28T09:30:12.023Z,1.6
2023-03-28T09:35:12.161Z,1.5
2023-03-28T09:40:11.995Z,1.5
2023-03-28T09:45:12.183Z,1.5
2023-03-28T09:50:15.032Z,1.6
2023-03-28T09:55:36.703Z,1.6
2023-03-28T10:00:12.022Z,1.5
2023-03-28T10:05:11.977Z,1.5
2023-03-28T10:10:11.998Z,1.5
2023-03-28T10:15:12.132Z,1.4
2023-03-28T10:20:11.961Z,1.4
2023-03-28T10:25:12.059Z,1.4
2023-03-28T10:30:12.090Z,1.4
2023-03-28T10:35:12.428Z,1.4
2023-03-28T10:40:12.567Z,1.4
2023-03-28T10:45:12.058Z,1.4
2023-03-28T10:50:12.103Z,1.4
2023-03-28T10:55:30.701Z,1.4
2023-03-28T11:00:12.001Z,1.4
2023-03-28T11:05:13.385Z,1.3
2023-03-28T11:10:12.113Z,1.3
2023-03-28T11:15:12.088Z,1.3
2023-03-28T11:20:12.074Z,1.4
2023-03-28T11:25:12.118Z,1.4
2023-03-28T11:30:12.298Z,1.5
2023-03-28T11:35:12.029Z,1.5
2023-03-28T11:40:15.022Z,1.5
2023-03-28T11:45:15.205Z,1.5
2023-03-28T11:50:12.067Z,1.6
2023-03-28T11:55:29.027Z,1.6
2023-03-28T12:00:32.582Z,1.6
2023-03-28T12:05:12.344Z,1.7
2023-03-28T12:10:12.012Z,1.7
2023-03-28T12:15:12.097Z,1.7
2023-03-28T12:20:12.011Z,1.7
2023-03-28T12:25:12.026Z,1.6
2023-03-28T12:30:12.071Z,1.6
2023-03-28T12:35:11.999Z,1.6
2023-03-28T12:40:12.035Z,1.6
2023-03-28T12:45:12.184Z,1.5
2023-03-28T12:50:12.052Z,1.5
2023-03-28T12:55:26.028Z,1.4
2023-03-28T13:00:12.074Z,1.4
2023-03-28T13:05:16.201Z,1.4
2023-03-28T13:10:12.205Z,1.4
2023-03-28T13:15:12.142Z,1.4
2023-03-28T13:20:12.008Z,1.4
2023-03-28T13:25:13.549Z,1.5
2023-03-28T13:30:12.066Z,1.5
2023-03-28T13:35:12.066Z,1.5
2023-03-28T13:40:12.050Z,1.5
2023-03-28T13:45:12.137Z,1.5
2023-03-28T13:50:12.036Z,1.4
2023-03-28T13:55:30.968Z,1.4
2023-03-28T14:00:12.085Z,1.4
2023-03-28T14:05:12.108Z,1.4
2023-03-28T14:10:12.122Z,1.4
2023-03-28T14:15:12.041Z,1.4
2023-03-28T14:20:12.103Z,1.3
2023-03-28T14:25:12.180Z,1.3
2023-03-28T14:30:12.154Z,1.3
2023-03-28T14:35:12.120Z,1.2
2023-03-28T14:40:12.051Z,1.2
2023-03-28T14:45:15.386Z,1.4
2023-03-28T14:50:12.100Z,1.3
2023-03-28T14:55:19.567Z,1.6
2023-03-28T15:00:12.098Z,1.3
2023-03-28T15:05:13.246Z,1.4
2023-03-28T15:10:12.079Z,1.4
2023-03-28T15:15:12.255Z,1.4
2023-03-28T15:20:12.196Z,1.4
2023-03-28T15:25:12.100Z,1.4
2023-03-28T15:30:12.093Z,1.3
2023-03-28T15:35:15.105Z,1.4
2023-03-28T15:40:12.080Z,1.7
2023-03-28T15:45:12.136Z,1.8
2023-03-28T15:50:12.099Z,1.8
2023-03-28T15:55:27.033Z,1.8
2023-03-28T16:00:12.123Z,1.8
2023-03-28T16:05:12.059Z,1.8
2023-03-28T16:10:12.066Z,1.8
2023-03-28T16:15:12.393Z,1.7
2023-03-28T16:20:12.123Z,1.6
2023-03-28T16:25:12.133Z,1.6
2023-03-28T16:30:12.237Z,1.6
2023-03-28T16:35:12.100Z,1.4
2023-03-28T16:40:12.096Z,1.4
2023-03-28T16:45:12.130Z,1.4
2023-03-28T16:50:12.130Z,1.4
2023-03-28T16:55:31.809Z,1.4
2023-03-28T17:00:12.135Z,1.4
2023-03-28T17:05:12.086Z,1.4
2023-03-28T17:10:12.133Z,1.3
2023-03-28T17:15:12.307Z,1.3
2023-03-28T17:20:12.170Z,1.6
2023-03-28T17:25:12.082Z,1.6
2023-03-28T17:30:12.121Z,2.3
2023-03-28T17:35:12.278Z,4.6
2023-03-28T17:40:12.164Z,4.6
2023-03-28T17:45:12.164Z,5.5
2023-03-28T17:50:12.147Z,5.5
2023-03-28T17:55:34.199Z,6.8
2023-03-28T18:00:12.169Z,6.8
2023-03-28T18:05:12.159Z,6.8
2023-03-28T18:10:12.095Z,8
2023-03-28T18:15:12.142Z,8.6
2023-03-28T18:20:12.123Z,8.6
2023-03-28T18:25:12.207Z,8.6
2023-03-28T18:30:12.267Z,8
2023-03-28T18:35:12.232Z,8.7
2023-03-28T18:40:12.239Z,8.7
2023-03-28T18:45:12.165Z,8.8
2023-03-28T18:50:12.177Z,6.5
2023-03-28T18:55:25.893Z,4.2
2023-03-28T19:00:12.113Z,4.2
2023-03-28T19:05:12.161Z,4.1
2023-03-28T19:10:12.406Z,4.1
2023-03-28T19:15:12.707Z,4
2023-03-28T19:20:12.221Z,3.1
2023-03-28T19:25:12.380Z,4
2023-03-28T19:30:12.269Z,3.6
2023-03-28T19:35:12.341Z,3.1
2023-03-28T19:40:12.144Z,3
2023-03-28T19:45:13.277Z,3.1
2023-03-28T19:50:12.141Z,3.1
2023-03-28T19:55:35.734Z,3
2023-03-28T20:00:12.300Z,2.4
2023-03-28T20:10:30.343Z,83.4
2023-03-28T20:15:12.718Z,51.45
2023-03-28T20:20:12.239Z,83.4
2023-03-28T20:25:12.229Z,51.45
2023-03-28T20:30:12.172Z,19.5
2023-03-28T20:35:12.219Z,11.55
2023-03-28T20:40:12.111Z,3.6
2023-03-28T20:45:12.220Z,2.9
2023-03-28T20:50:12.197Z,2.8
2023-03-28T20:55:12.257Z,2.8
2023-03-28T21:00:16.157Z,2.8
2023-03-28T21:05:12.292Z,2.6
2023-03-28T21:10:14.067Z,2.5
2023-03-28T21:15:12.174Z,2.5
2023-03-28T21:20:12.350Z,2.6
2023-03-28T21:25:12.172Z,2.2
2023-03-28T21:30:12.164Z,2.2
2023-03-28T21:35:12.292Z,2.1
2023-03-28T21:40:12.192Z,2.1
2023-03-28T21:45:12.195Z,2.1
2023-03-28T21:50:16.191Z,2.2
2023-03-28T21:55:12.185Z,2.1
2023-03-28T22:00:12.172Z,2.1
2023-03-28T22:05:28.507Z,2.2
2023-03-28T22:10:15.207Z,2.2
2023-03-28T22:15:12.388Z,2.2
2023-03-28T22:20:12.349Z,2.2
2023-03-28T22:25:12.286Z,2.2
2023-03-28T22:30:13.684Z,2.4
2023-03-28T22:35:12.284Z,2.2
2023-03-28T22:40:12.179Z,2.2
2023-03-28T22:45:12.263Z,2.3
2023-03-28T22:50:12.206Z,2.3
2023-03-28T22:55:12.265Z,2.4
2023-03-28T23:00:12.438Z,2.3
2023-03-28T23:05:12.324Z,2.2
2023-03-28T23:10:12.265Z,2.3
2023-03-28T23:15:12.383Z,2.3
2023-03-28T23:20:12.347Z,2.2
2023-03-28T23:25:12.472Z,2.2
2023-03-28T23:30:12.217Z,2.2
2023-03-28T23:35:12.196Z,2.3
2023-03-28T23:40:12.323Z,2.4
2023-03-28T23:45:12.175Z,2.3
2023-03-28T23:50:12.182Z,2.3
2023-03-28T23:55:12.333Z,2.3
